sensor_id;sensor_type;location;lat;lon;timestamp;P1;durP1;ratioP1;P2;durP2;ratioP2
809;SDS011;387;48.772;9.186;2023-01-30T00:00:58;25.23;;;13.30;;
809;SDS011;387;48.772;9.186;2023-01-30T00:03:26;27.77;;;13.68;;
809;SDS011;387;48.772;9.186;2023-01-30T00:05:52;32.53;;;14.30;;
809;SDS011;387;48.772;9.186;2023-01-30T00:08:18;28.58;;;14.45;;
809;SDS011;387;48.772;9.186;2023-01-30T00:10:44;33.63;;;14.20;;
809;SDS011;387;48.772;9.186;2023-01-30T00:13:10;27.33;;;14.05;;
809;SDS011;387;48.772;9.186;2023-01-30T00:15:38;28.85;;;12.43;;
809;SDS011;387;48.772;9.186;2023-01-30T00:18:03;29.17;;;14.30;;
809;SDS011;387;48.772;9.186;2023-01-30T00:20:29;30.47;;;13.43;;
809;SDS011;387;48.772;9.186;2023-01-30T00:22:55;29.17;;;13.27;;
809;SDS011;387;48.772;9.186;2023-01-30T00:25:22;26.08;;;13.27;;
809;SDS011;387;48.772;9.186;2023-01-30T00:27:48;27.63;;;13.40;;
809;SDS011;387;48.772;9.186;2023-01-30T00:30:14;28.93;;;13.90;;
809;SDS011;387;48.772;9.186;2023-01-30T00:32:39;28.93;;;13.10;;
809;SDS011;387;48.772;9.186;2023-01-30T00:35:05;26.77;;;12.60;;
809;SDS011;387;48.772;9.186;2023-01-30T00:37:31;27.70;;;12.97;;
809;SDS011;387;48.772;9.186;2023-01-30T00:39:56;26.53;;;11.90;;
809;SDS011;387;48.772;9.186;2023-01-30T00:42:22;24.67;;;13.37;;
809;SDS011;387;48.772;9.186;2023-01-30T00:45:08;33.55;;;14.02;;
809;SDS011;387;48.772;9.186;2023-01-30T00:47:54;31.20;;;13.35;;
809;SDS011;387;48.772;9.186;2023-01-30T00:50:19;31.40;;;14.17;;
809;SDS011;387;48.772;9.186;2023-01-30T00:52:45;27.80;;;13.87;;
809;SDS011;387;48.772;9.186;2023-01-30T00:55:11;26.50;;;13.70;;
809;SDS011;387;48.772;9.186;2023-01-30T00:57:36;33.80;;;13.63;;
809;SDS011;387;48.772;9.186;2023-01-30T01:00:02;25.77;;;12.40;;
809;SDS011;387;48.772;9.186;2023-01-30T01:02:29;32.55;;;13.90;;
809;SDS011;387;48.772;9.186;2023-01-30T01:04:55;26.75;;;12.57;;
809;SDS011;387;48.772;9.186;2023-01-30T01:07:21;35.97;;;13.33;;
809;SDS011;387;48.772;9.186;2023-01-30T01:09:46;38.33;;;12.73;;
809;SDS011;387;48.772;9.186;2023-01-30T01:12:12;23.20;;;12.60;;
809;SDS011;387;48.772;9.186;2023-01-30T01:14:37;29.03;;;12.53;;
809;SDS011;387;48.772;9.186;2023-01-30T01:17:03;30.07;;;12.50;;
809;SDS011;387;48.772;9.186;2023-01-30T01:19:29;28.60;;;13.47;;
809;SDS011;387;48.772;9.186;2023-01-30T01:21:54;27.73;;;13.03;;
809;SDS011;387;48.772;9.186;2023-01-30T01:24:20;24.43;;;12.33;;
809;SDS011;387;48.772;9.186;2023-01-30T01:26:46;26.10;;;12.33;;
809;SDS011;387;48.772;9.186;2023-01-30T01:29:12;27.50;;;14.07;;
809;SDS011;387;48.772;9.186;2023-01-30T01:31:38;28.50;;;13.52;;
809;SDS011;387;48.772;9.186;2023-01-30T01:34:04;30.00;;;14.07;;
809;SDS011;387;48.772;9.186;2023-01-30T01:36:29;26.43;;;13.27;;
809;SDS011;387;48.772;9.186;2023-01-30T01:38:55;31.17;;;13.10;;
809;SDS011;387;48.772;9.186;2023-01-30T01:41:20;27.50;;;12.33;;
809;SDS011;387;48.772;9.186;2023-01-30T01:44:00;28.07;;;14.23;;
809;SDS011;387;48.772;9.186;2023-01-30T01:46:37;26.95;;;12.77;;
809;SDS011;387;48.772;9.186;2023-01-30T01:49:11;29.20;;;12.75;;
809;SDS011;387;48.772;9.186;2023-01-30T01:51:41;26.63;;;12.95;;
809;SDS011;387;48.772;9.186;2023-01-30T01:54:15;29.75;;;12.57;;
809;SDS011;387;48.772;9.186;2023-01-30T01:56:47;24.92;;;13.18;;
809;SDS011;387;48.772;9.186;2023-01-30T01:59:24;24.15;;;11.88;;
809;SDS011;387;48.772;9.186;2023-01-30T02:01:58;31.50;;;12.85;;
809;SDS011;387;48.772;9.186;2023-01-30T02:04:29;23.88;;;13.23;;
809;SDS011;387;48.772;9.186;2023-01-30T02:07:15;22.20;;;11.43;;
809;SDS011;387;48.772;9.186;2023-01-30T02:09:44;26.08;;;12.40;;
809;SDS011;387;48.772;9.186;2023-01-30T02:12:10;23.73;;;12.27;;
809;SDS011;387;48.772;9.186;2023-01-30T02:14:38;27.83;;;12.15;;
809;SDS011;387;48.772;9.186;2023-01-30T02:17:05;28.52;;;13.40;;
809;SDS011;387;48.772;9.186;2023-01-30T02:19:48;27.57;;;13.20;;
809;SDS011;387;48.772;9.186;2023-01-30T02:25:01;22.33;;;12.20;;
809;SDS011;387;48.772;9.186;2023-01-30T02:28:05;29.92;;;13.02;;
809;SDS011;387;48.772;9.186;2023-01-30T02:30:58;28.30;;;12.65;;
809;SDS011;387;48.772;9.186;2023-01-30T02:36:54;25.25;;;14.05;;
809;SDS011;387;48.772;9.186;2023-01-30T02:46:38;31.35;;;14.05;;
809;SDS011;387;48.772;9.186;2023-01-30T02:49:13;32.20;;;13.95;;
809;SDS011;387;48.772;9.186;2023-01-30T02:51:46;26.20;;;13.25;;
809;SDS011;387;48.772;9.186;2023-01-30T02:54:14;30.35;;;13.00;;
809;SDS011;387;48.772;9.186;2023-01-30T02:56:47;28.50;;;13.30;;
809;SDS011;387;48.772;9.186;2023-01-30T02:59:19;25.23;;;12.95;;
809;SDS011;387;48.772;9.186;2023-01-30T03:10:27;31.27;;;14.68;;
809;SDS011;387;48.772;9.186;2023-01-30T03:15:41;28.23;;;13.23;;
809;SDS011;387;48.772;9.186;2023-01-30T03:18:08;21.98;;;13.13;;
809;SDS011;387;48.772;9.186;2023-01-30T03:20:35;30.00;;;13.38;;
809;SDS011;387;48.772;9.186;2023-01-30T03:23:02;33.13;;;13.60;;
809;SDS011;387;48.772;9.186;2023-01-30T03:25:28;38.90;;;13.40;;
809;SDS011;387;48.772;9.186;2023-01-30T03:27:53;26.93;;;12.77;;
809;SDS011;387;48.772;9.186;2023-01-30T03:30:20;28.10;;;13.57;;
809;SDS011;387;48.772;9.186;2023-01-30T03:32:48;27.20;;;11.82;;
809;SDS011;387;48.772;9.186;2023-01-30T03:35:14;22.73;;;12.07;;
809;SDS011;387;48.772;9.186;2023-01-30T03:37:41;24.60;;;11.90;;
809;SDS011;387;48.772;9.186;2023-01-30T03:40:08;26.40;;;11.70;;
809;SDS011;387;48.772;9.186;2023-01-30T03:42:35;21.85;;;11.20;;
809;SDS011;387;48.772;9.186;2023-01-30T03:45:00;24.40;;;10.30;;
809;SDS011;387;48.772;9.186;2023-01-30T03:47:26;28.17;;;11.43;;
809;SDS011;387;48.772;9.186;2023-01-30T03:49:51;23.10;;;10.97;;
809;SDS011;387;48.772;9.186;2023-01-30T03:52:17;22.37;;;10.40;;
809;SDS011;387;48.772;9.186;2023-01-30T03:54:42;18.93;;;10.50;;
809;SDS011;387;48.772;9.186;2023-01-30T03:57:08;23.90;;;11.27;;
809;SDS011;387;48.772;9.186;2023-01-30T03:59:33;19.70;;;11.33;;
809;SDS011;387;48.772;9.186;2023-01-30T04:01:59;20.83;;;11.03;;
809;SDS011;387;48.772;9.186;2023-01-30T04:04:24;17.57;;;10.30;;
809;SDS011;387;48.772;9.186;2023-01-30T04:06:50;23.20;;;11.17;;
809;SDS011;387;48.772;9.186;2023-01-30T04:09:16;22.77;;;10.60;;
809;SDS011;387;48.772;9.186;2023-01-30T04:11:41;24.77;;;11.30;;
809;SDS011;387;48.772;9.186;2023-01-30T04:14:07;19.50;;;9.93;;
809;SDS011;387;48.772;9.186;2023-01-30T04:16:33;25.30;;;10.80;;
809;SDS011;387;48.772;9.186;2023-01-30T04:18:58;28.10;;;11.50;;
809;SDS011;387;48.772;9.186;2023-01-30T04:21:24;19.20;;;10.40;;
809;SDS011;387;48.772;9.186;2023-01-30T04:23:49;22.97;;;11.10;;
809;SDS011;387;48.772;9.186;2023-01-30T04:26:15;20.20;;;10.10;;
809;SDS011;387;48.772;9.186;2023-01-30T04:28:41;20.83;;;10.17;;
809;SDS011;387;48.772;9.186;2023-01-30T04:31:08;23.77;;;9.88;;
809;SDS011;387;48.772;9.186;2023-01-30T04:33:34;23.97;;;10.53;;
809;SDS011;387;48.772;9.186;2023-01-30T04:36:00;26.17;;;10.87;;
809;SDS011;387;48.772;9.186;2023-01-30T04:38:27;22.25;;;9.45;;
809;SDS011;387;48.772;9.186;2023-01-30T04:40:55;20.02;;;9.63;;
809;SDS011;387;48.772;9.186;2023-01-30T04:43:22;22.50;;;10.75;;
809;SDS011;387;48.772;9.186;2023-01-30T04:45:49;16.17;;;10.07;;
809;SDS011;387;48.772;9.186;2023-01-30T04:48:15;18.30;;;9.15;;
809;SDS011;387;48.772;9.186;2023-01-30T04:50:42;27.73;;;9.85;;
809;SDS011;387;48.772;9.186;2023-01-30T04:53:11;15.75;;;8.82;;
809;SDS011;387;48.772;9.186;2023-01-30T04:55:36;18.03;;;9.10;;
809;SDS011;387;48.772;9.186;2023-01-30T04:58:02;17.23;;;9.60;;
809;SDS011;387;48.772;9.186;2023-01-30T05:00:28;19.33;;;9.90;;
809;SDS011;387;48.772;9.186;2023-01-30T05:02:54;17.27;;;8.60;;
809;SDS011;387;48.772;9.186;2023-01-30T05:05:22;18.98;;;9.27;;
809;SDS011;387;48.772;9.186;2023-01-30T05:07:49;20.02;;;9.45;;
809;SDS011;387;48.772;9.186;2023-01-30T05:10:15;17.57;;;9.10;;
809;SDS011;387;48.772;9.186;2023-01-30T05:12:41;15.38;;;9.23;;
809;SDS011;387;48.772;9.186;2023-01-30T05:15:07;21.43;;;10.07;;
809;SDS011;387;48.772;9.186;2023-01-30T05:17:33;15.48;;;8.52;;
809;SDS011;387;48.772;9.186;2023-01-30T05:19:59;21.42;;;9.45;;
809;SDS011;387;48.772;9.186;2023-01-30T05:22:24;19.93;;;9.40;;
809;SDS011;387;48.772;9.186;2023-01-30T05:24:50;18.20;;;9.53;;
809;SDS011;387;48.772;9.186;2023-01-30T05:27:16;19.50;;;9.40;;
809;SDS011;387;48.772;9.186;2023-01-30T05:29:41;17.60;;;8.57;;
809;SDS011;387;48.772;9.186;2023-01-30T05:32:09;20.40;;;8.50;;
809;SDS011;387;48.772;9.186;2023-01-30T05:34:39;14.32;;;7.85;;
809;SDS011;387;48.772;9.186;2023-01-30T05:37:05;18.73;;;8.40;;
809;SDS011;387;48.772;9.186;2023-01-30T05:39:31;20.07;;;9.43;;
809;SDS011;387;48.772;9.186;2023-01-30T05:41:56;12.17;;;8.17;;
809;SDS011;387;48.772;9.186;2023-01-30T05:44:22;17.53;;;9.40;;
809;SDS011;387;48.772;9.186;2023-01-30T05:46:48;18.50;;;9.33;;
809;SDS011;387;48.772;9.186;2023-01-30T05:49:14;18.70;;;8.57;;
809;SDS011;387;48.772;9.186;2023-01-30T05:51:40;21.50;;;9.45;;
809;SDS011;387;48.772;9.186;2023-01-30T05:54:05;19.17;;;9.37;;
809;SDS011;387;48.772;9.186;2023-01-30T05:56:31;15.63;;;8.52;;
809;SDS011;387;48.772;9.186;2023-01-30T05:58:57;16.73;;;8.47;;
809;SDS011;387;48.772;9.186;2023-01-30T06:01:24;20.27;;;9.82;;
809;SDS011;387;48.772;9.186;2023-01-30T06:03:50;19.73;;;9.52;;
809;SDS011;387;48.772;9.186;2023-01-30T06:06:16;19.77;;;9.97;;
809;SDS011;387;48.772;9.186;2023-01-30T06:08:42;21.98;;;8.90;;
809;SDS011;387;48.772;9.186;2023-01-30T06:11:09;19.10;;;9.67;;
809;SDS011;387;48.772;9.186;2023-01-30T06:13:36;23.15;;;9.88;;
809;SDS011;387;48.772;9.186;2023-01-30T06:16:03;15.83;;;8.30;;
809;SDS011;387;48.772;9.186;2023-01-30T06:18:32;16.88;;;8.60;;
809;SDS011;387;48.772;9.186;2023-01-30T06:20:58;19.50;;;10.10;;
809;SDS011;387;48.772;9.186;2023-01-30T06:23:24;19.07;;;8.00;;
809;SDS011;387;48.772;9.186;2023-01-30T06:25:50;20.00;;;9.83;;
809;SDS011;387;48.772;9.186;2023-01-30T06:28:16;23.73;;;10.52;;
809;SDS011;387;48.772;9.186;2023-01-30T06:30:42;16.08;;;9.00;;
809;SDS011;387;48.772;9.186;2023-01-30T06:33:08;20.07;;;9.80;;
809;SDS011;387;48.772;9.186;2023-01-30T06:35:38;22.98;;;9.77;;
809;SDS011;387;48.772;9.186;2023-01-30T06:38:04;22.92;;;9.25;;
809;SDS011;387;48.772;9.186;2023-01-30T06:40:30;23.35;;;8.85;;
809;SDS011;387;48.772;9.186;2023-01-30T06:42:56;29.23;;;9.20;;
809;SDS011;387;48.772;9.186;2023-01-30T06:45:22;22.60;;;9.30;;
809;SDS011;387;48.772;9.186;2023-01-30T06:47:51;21.40;;;10.33;;
809;SDS011;387;48.772;9.186;2023-01-30T06:50:18;20.38;;;8.50;;
809;SDS011;387;48.772;9.186;2023-01-30T06:52:47;23.27;;;9.98;;
809;SDS011;387;48.772;9.186;2023-01-30T06:55:15;19.50;;;8.82;;
809;SDS011;387;48.772;9.186;2023-01-30T06:57:42;18.73;;;9.35;;
809;SDS011;387;48.772;9.186;2023-01-30T07:00:09;17.63;;;8.63;;
809;SDS011;387;48.772;9.186;2023-01-30T07:02:36;14.45;;;8.38;;
809;SDS011;387;48.772;9.186;2023-01-30T07:05:03;14.07;;;8.30;;
809;SDS011;387;48.772;9.186;2023-01-30T07:07:30;14.65;;;9.27;;
809;SDS011;387;48.772;9.186;2023-01-30T07:09:56;18.63;;;9.27;;
809;SDS011;387;48.772;9.186;2023-01-30T07:12:23;20.00;;;9.90;;
809;SDS011;387;48.772;9.186;2023-01-30T07:14:49;19.10;;;9.48;;
809;SDS011;387;48.772;9.186;2023-01-30T07:17:15;18.15;;;8.77;;
809;SDS011;387;48.772;9.186;2023-01-30T07:19:41;20.15;;;9.63;;
809;SDS011;387;48.772;9.186;2023-01-30T07:22:07;21.75;;;9.50;;
809;SDS011;387;48.772;9.186;2023-01-30T07:24:33;17.07;;;8.60;;
809;SDS011;387;48.772;9.186;2023-01-30T07:26:58;18.33;;;9.13;;
809;SDS011;387;48.772;9.186;2023-01-30T07:29:24;19.23;;;9.90;;
809;SDS011;387;48.772;9.186;2023-01-30T07:31:50;15.60;;;8.30;;
809;SDS011;387;48.772;9.186;2023-01-30T07:34:16;20.67;;;9.60;;
809;SDS011;387;48.772;9.186;2023-01-30T07:36:41;16.37;;;8.50;;
809;SDS011;387;48.772;9.186;2023-01-30T07:39:07;26.00;;;10.43;;
809;SDS011;387;48.772;9.186;2023-01-30T07:41:33;18.05;;;9.10;;
809;SDS011;387;48.772;9.186;2023-01-30T07:44:02;22.48;;;9.40;;
809;SDS011;387;48.772;9.186;2023-01-30T07:46:27;17.97;;;8.40;;
809;SDS011;387;48.772;9.186;2023-01-30T07:48:59;16.65;;;8.95;;
809;SDS011;387;48.772;9.186;2023-01-30T07:51:25;18.55;;;9.02;;
809;SDS011;387;48.772;9.186;2023-01-30T07:53:51;17.57;;;8.50;;
809;SDS011;387;48.772;9.186;2023-01-30T07:56:16;16.63;;;8.03;;
809;SDS011;387;48.772;9.186;2023-01-30T07:58:44;13.43;;;7.43;;
809;SDS011;387;48.772;9.186;2023-01-30T08:01:10;14.00;;;7.63;;
809;SDS011;387;48.772;9.186;2023-01-30T08:03:35;13.97;;;7.10;;
809;SDS011;387;48.772;9.186;2023-01-30T08:06:01;15.10;;;7.80;;
809;SDS011;387;48.772;9.186;2023-01-30T08:08:26;15.77;;;7.47;;
809;SDS011;387;48.772;9.186;2023-01-30T08:10:53;13.52;;;7.97;;
809;SDS011;387;48.772;9.186;2023-01-30T08:13:18;18.53;;;9.17;;
809;SDS011;387;48.772;9.186;2023-01-30T08:15:44;14.27;;;7.57;;
809;SDS011;387;48.772;9.186;2023-01-30T08:18:09;16.67;;;8.10;;
809;SDS011;387;48.772;9.186;2023-01-30T08:20:35;14.70;;;7.80;;
809;SDS011;387;48.772;9.186;2023-01-30T08:23:01;22.17;;;8.30;;
809;SDS011;387;48.772;9.186;2023-01-30T08:25:27;17.23;;;7.70;;
809;SDS011;387;48.772;9.186;2023-01-30T08:27:53;18.20;;;8.88;;
809;SDS011;387;48.772;9.186;2023-01-30T08:30:19;20.00;;;9.10;;
809;SDS011;387;48.772;9.186;2023-01-30T08:32:45;15.35;;;7.88;;
809;SDS011;387;48.772;9.186;2023-01-30T08:35:11;17.50;;;8.23;;
809;SDS011;387;48.772;9.186;2023-01-30T08:37:40;13.43;;;7.50;;
809;SDS011;387;48.772;9.186;2023-01-30T08:40:06;22.73;;;8.25;;
809;SDS011;387;48.772;9.186;2023-01-30T08:42:33;19.02;;;8.00;;
809;SDS011;387;48.772;9.186;2023-01-30T08:44:58;17.50;;;8.30;;
809;SDS011;387;48.772;9.186;2023-01-30T08:47:24;16.30;;;7.67;;
809;SDS011;387;48.772;9.186;2023-01-30T08:49:49;16.87;;;7.30;;
809;SDS011;387;48.772;9.186;2023-01-30T08:52:16;16.33;;;8.05;;
809;SDS011;387;48.772;9.186;2023-01-30T08:54:45;19.88;;;8.25;;
809;SDS011;387;48.772;9.186;2023-01-30T08:57:12;15.35;;;7.25;;
809;SDS011;387;48.772;9.186;2023-01-30T08:59:38;20.60;;;8.57;;
809;SDS011;387;48.772;9.186;2023-01-30T09:02:04;17.30;;;7.07;;
809;SDS011;387;48.772;9.186;2023-01-30T09:04:31;14.30;;;7.00;;
809;SDS011;387;48.772;9.186;2023-01-30T09:06:56;14.95;;;7.57;;
809;SDS011;387;48.772;9.186;2023-01-30T09:09:22;14.60;;;7.70;;
809;SDS011;387;48.772;9.186;2023-01-30T09:11:48;11.93;;;6.70;;
809;SDS011;387;48.772;9.186;2023-01-30T09:14:14;17.60;;;7.30;;
809;SDS011;387;48.772;9.186;2023-01-30T09:16:46;17.30;;;7.43;;
809;SDS011;387;48.772;9.186;2023-01-30T09:19:19;15.65;;;7.68;;
809;SDS011;387;48.772;9.186;2023-01-30T09:21:54;12.10;;;6.45;;
809;SDS011;387;48.772;9.186;2023-01-30T09:24:20;15.30;;;7.00;;
809;SDS011;387;48.772;9.186;2023-01-30T09:26:50;15.63;;;7.00;;
809;SDS011;387;48.772;9.186;2023-01-30T09:29:21;12.87;;;7.57;;
809;SDS011;387;48.772;9.186;2023-01-30T09:31:47;14.27;;;7.10;;
809;SDS011;387;48.772;9.186;2023-01-30T09:34:13;14.70;;;7.00;;
809;SDS011;387;48.772;9.186;2023-01-30T09:36:39;12.70;;;7.10;;
809;SDS011;387;48.772;9.186;2023-01-30T09:39:05;14.00;;;6.67;;
809;SDS011;387;48.772;9.186;2023-01-30T09:41:44;10.67;;;5.80;;
809;SDS011;387;48.772;9.186;2023-01-30T09:44:31;12.83;;;6.30;;
809;SDS011;387;48.772;9.186;2023-01-30T09:47:23;11.68;;;6.40;;
809;SDS011;387;48.772;9.186;2023-01-30T09:50:00;11.50;;;5.47;;
809;SDS011;387;48.772;9.186;2023-01-30T09:55:25;13.77;;;5.70;;
809;SDS011;387;48.772;9.186;2023-01-30T09:57:53;13.82;;;5.45;;
809;SDS011;387;48.772;9.186;2023-01-30T10:00:30;12.18;;;5.13;;
809;SDS011;387;48.772;9.186;2023-01-30T10:03:13;12.10;;;5.50;;
809;SDS011;387;48.772;9.186;2023-01-30T10:05:56;9.83;;;5.00;;
809;SDS011;387;48.772;9.186;2023-01-30T10:09:10;10.00;;;5.40;;
809;SDS011;387;48.772;9.186;2023-01-30T10:13:53;14.13;;;5.90;;
809;SDS011;387;48.772;9.186;2023-01-30T10:22:20;8.50;;;4.33;;
809;SDS011;387;48.772;9.186;2023-01-30T10:27:40;8.30;;;4.57;;
809;SDS011;387;48.772;9.186;2023-01-30T10:30:32;5.13;;;3.40;;
809;SDS011;387;48.772;9.186;2023-01-30T10:33:11;7.43;;;3.50;;
809;SDS011;387;48.772;9.186;2023-01-30T10:35:44;5.53;;;3.10;;
809;SDS011;387;48.772;9.186;2023-01-30T10:38:27;5.97;;;2.90;;
809;SDS011;387;48.772;9.186;2023-01-30T10:43:46;12.47;;;4.23;;
809;SDS011;387;48.772;9.186;2023-01-30T10:46:25;6.77;;;3.80;;
809;SDS011;387;48.772;9.186;2023-01-30T10:49:17;6.60;;;3.60;;
809;SDS011;387;48.772;9.186;2023-01-30T10:52:00;8.13;;;4.17;;
809;SDS011;387;48.772;9.186;2023-01-30T10:54:57;5.43;;;3.10;;
809;SDS011;387;48.772;9.186;2023-01-30T11:03:08;6.13;;;3.20;;
809;SDS011;387;48.772;9.186;2023-01-30T11:05:44;6.77;;;3.07;;
809;SDS011;387;48.772;9.186;2023-01-30T11:08:16;6.43;;;3.07;;
809;SDS011;387;48.772;9.186;2023-01-30T11:10:54;8.53;;;3.80;;
809;SDS011;387;48.772;9.186;2023-01-30T11:13:22;5.93;;;3.13;;
809;SDS011;387;48.772;9.186;2023-01-30T11:15:56;5.20;;;2.83;;
809;SDS011;387;48.772;9.186;2023-01-30T11:18:24;8.20;;;2.77;;
809;SDS011;387;48.772;9.186;2023-01-30T11:23:53;5.43;;;3.00;;
809;SDS011;387;48.772;9.186;2023-01-30T11:26:24;5.83;;;2.97;;
809;SDS011;387;48.772;9.186;2023-01-30T11:29:13;6.30;;;2.93;;
809;SDS011;387;48.772;9.186;2023-01-30T11:31:48;7.83;;;3.80;;
809;SDS011;387;48.772;9.186;2023-01-30T11:34:16;8.45;;;4.15;;
809;SDS011;387;48.772;9.186;2023-01-30T11:36:43;9.03;;;3.97;;
809;SDS011;387;48.772;9.186;2023-01-30T11:41:36;9.30;;;4.20;;
809;SDS011;387;48.772;9.186;2023-01-30T11:44:09;8.37;;;4.20;;
809;SDS011;387;48.772;9.186;2023-01-30T11:46:37;8.38;;;4.05;;
809;SDS011;387;48.772;9.186;2023-01-30T11:49:09;6.43;;;3.83;;
809;SDS011;387;48.772;9.186;2023-01-30T11:51:41;6.95;;;4.47;;
809;SDS011;387;48.772;9.186;2023-01-30T11:54:17;9.40;;;4.43;;
809;SDS011;387;48.772;9.186;2023-01-30T11:56:53;9.93;;;5.13;;
809;SDS011;387;48.772;9.186;2023-01-30T11:59:28;9.30;;;4.70;;
809;SDS011;387;48.772;9.186;2023-01-30T12:04:49;10.35;;;4.63;;
809;SDS011;387;48.772;9.186;2023-01-30T12:07:20;9.40;;;4.10;;
809;SDS011;387;48.772;9.186;2023-01-30T12:09:48;7.22;;;4.30;;
809;SDS011;387;48.772;9.186;2023-01-30T12:14:53;14.43;;;5.13;;
809;SDS011;387;48.772;9.186;2023-01-30T12:17:34;7.73;;;4.60;;
809;SDS011;387;48.772;9.186;2023-01-30T12:31:49;6.88;;;4.05;;
809;SDS011;387;48.772;9.186;2023-01-30T12:34:39;9.32;;;4.88;;
809;SDS011;387;48.772;9.186;2023-01-30T12:37:18;8.38;;;4.53;;
809;SDS011;387;48.772;9.186;2023-01-30T12:39:53;9.57;;;5.13;;
809;SDS011;387;48.772;9.186;2023-01-30T12:58:14;10.85;;;5.55;;
809;SDS011;387;48.772;9.186;2023-01-30T13:00:53;11.55;;;5.07;;
809;SDS011;387;48.772;9.186;2023-01-30T13:06:08;11.70;;;5.30;;
809;SDS011;387;48.772;9.186;2023-01-30T13:08:54;13.48;;;4.53;;
809;SDS011;387;48.772;9.186;2023-01-30T13:11:30;9.85;;;5.75;;
809;SDS011;387;48.772;9.186;2023-01-30T13:14:05;15.27;;;5.95;;
809;SDS011;387;48.772;9.186;2023-01-30T13:16:54;9.45;;;4.72;;
809;SDS011;387;48.772;9.186;2023-01-30T13:19:40;13.07;;;6.10;;
809;SDS011;387;48.772;9.186;2023-01-30T13:28:02;11.30;;;6.15;;
809;SDS011;387;48.772;9.186;2023-01-30T13:30:35;10.50;;;5.18;;
809;SDS011;387;48.772;9.186;2023-01-30T13:33:04;12.27;;;5.47;;
809;SDS011;387;48.772;9.186;2023-01-30T13:35:39;9.25;;;4.65;;
809;SDS011;387;48.772;9.186;2023-01-30T13:40:43;11.70;;;5.43;;
809;SDS011;387;48.772;9.186;2023-01-30T13:45:39;13.48;;;5.90;;
809;SDS011;387;48.772;9.186;2023-01-30T13:54:04;10.73;;;6.38;;
809;SDS011;387;48.772;9.186;2023-01-30T13:56:56;9.32;;;4.75;;
809;SDS011;387;48.772;9.186;2023-01-30T14:02:19;13.50;;;4.20;;
809;SDS011;387;48.772;9.186;2023-01-30T14:04:50;8.90;;;4.90;;
809;SDS011;387;48.772;9.186;2023-01-30T14:07:26;9.30;;;5.10;;
809;SDS011;387;48.772;9.186;2023-01-30T14:12:41;9.52;;;5.30;;
809;SDS011;387;48.772;9.186;2023-01-30T14:17:55;6.60;;;4.20;;
809;SDS011;387;48.772;9.186;2023-01-30T14:20:21;7.10;;;3.30;;
809;SDS011;387;48.772;9.186;2023-01-30T14:27:47;4.80;;;2.30;;
809;SDS011;387;48.772;9.186;2023-01-30T14:35:46;5.13;;;2.37;;
809;SDS011;387;48.772;9.186;2023-01-30T14:38:16;4.90;;;2.30;;
809;SDS011;387;48.772;9.186;2023-01-30T14:40:44;2.57;;;1.83;;
809;SDS011;387;48.772;9.186;2023-01-30T14:43:25;2.60;;;1.90;;
809;SDS011;387;48.772;9.186;2023-01-30T14:46:05;2.30;;;1.70;;
809;SDS011;387;48.772;9.186;2023-01-30T14:59:04;4.47;;;2.30;;
809;SDS011;387;48.772;9.186;2023-01-30T15:04:48;5.00;;;2.97;;
809;SDS011;387;48.772;9.186;2023-01-30T15:15:20;5.90;;;2.67;;
809;SDS011;387;48.772;9.186;2023-01-30T15:31:55;4.60;;;3.10;;
809;SDS011;387;48.772;9.186;2023-01-30T15:34:23;4.53;;;3.13;;
809;SDS011;387;48.772;9.186;2023-01-30T15:36:52;7.17;;;3.80;;
809;SDS011;387;48.772;9.186;2023-01-30T15:39:25;6.70;;;3.70;;
809;SDS011;387;48.772;9.186;2023-01-30T15:41:52;8.63;;;3.80;;
809;SDS011;387;48.772;9.186;2023-01-30T15:47:02;5.27;;;3.43;;
809;SDS011;387;48.772;9.186;2023-01-30T15:49:53;6.83;;;3.77;;
809;SDS011;387;48.772;9.186;2023-01-30T15:52:20;8.00;;;4.13;;
809;SDS011;387;48.772;9.186;2023-01-30T15:54:51;8.10;;;3.90;;
809;SDS011;387;48.772;9.186;2023-01-30T15:57:28;6.10;;;3.77;;
809;SDS011;387;48.772;9.186;2023-01-30T15:59:59;4.53;;;3.20;;
809;SDS011;387;48.772;9.186;2023-01-30T16:02:32;8.87;;;3.53;;
809;SDS011;387;48.772;9.186;2023-01-30T16:05:19;8.20;;;4.00;;
809;SDS011;387;48.772;9.186;2023-01-30T16:07:50;7.83;;;3.90;;
809;SDS011;387;48.772;9.186;2023-01-30T16:10:17;7.37;;;3.50;;
809;SDS011;387;48.772;9.186;2023-01-30T16:12:45;5.80;;;3.40;;
809;SDS011;387;48.772;9.186;2023-01-30T16:15:12;10.53;;;4.10;;
809;SDS011;387;48.772;9.186;2023-01-30T16:17:39;6.93;;;3.80;;
809;SDS011;387;48.772;9.186;2023-01-30T16:20:10;9.53;;;3.83;;
809;SDS011;387;48.772;9.186;2023-01-30T16:22:40;8.03;;;4.43;;
809;SDS011;387;48.772;9.186;2023-01-30T16:25:14;11.60;;;4.90;;
809;SDS011;387;48.772;9.186;2023-01-30T16:27:44;6.40;;;4.33;;
809;SDS011;387;48.772;9.186;2023-01-30T16:30:12;12.47;;;4.87;;
809;SDS011;387;48.772;9.186;2023-01-30T16:32:45;9.50;;;4.77;;
809;SDS011;387;48.772;9.186;2023-01-30T16:37:50;7.50;;;4.13;;
809;SDS011;387;48.772;9.186;2023-01-30T16:40:17;9.37;;;4.23;;
809;SDS011;387;48.772;9.186;2023-01-30T16:50:41;8.20;;;4.33;;
809;SDS011;387;48.772;9.186;2023-01-30T16:53:11;12.80;;;4.63;;
809;SDS011;387;48.772;9.186;2023-01-30T16:55:52;6.27;;;4.00;;
809;SDS011;387;48.772;9.186;2023-01-30T16:58:32;7.80;;;4.20;;
809;SDS011;387;48.772;9.186;2023-01-30T17:01:03;9.23;;;4.60;;
809;SDS011;387;48.772;9.186;2023-01-30T17:03:32;6.90;;;4.33;;
809;SDS011;387;48.772;9.186;2023-01-30T17:06:01;7.87;;;4.63;;
809;SDS011;387;48.772;9.186;2023-01-30T17:08:37;10.00;;;4.47;;
809;SDS011;387;48.772;9.186;2023-01-30T17:14:38;7.00;;;4.40;;
809;SDS011;387;48.772;9.186;2023-01-30T17:16:39;7.60;;;4.40;;
809;SDS011;387;48.772;9.186;2023-01-30T17:19:06;6.20;;;3.97;;
809;SDS011;387;48.772;9.186;2023-01-30T17:21:42;10.87;;;4.90;;
809;SDS011;387;48.772;9.186;2023-01-30T17:24:19;10.43;;;4.40;;
809;SDS011;387;48.772;9.186;2023-01-30T17:26:46;9.60;;;4.67;;
809;SDS011;387;48.772;9.186;2023-01-30T17:29:13;11.93;;;4.17;;
809;SDS011;387;48.772;9.186;2023-01-30T17:31:44;11.13;;;4.53;;
809;SDS011;387;48.772;9.186;2023-01-30T17:34:12;8.20;;;4.30;;
809;SDS011;387;48.772;9.186;2023-01-30T17:36:38;7.60;;;4.70;;
809;SDS011;387;48.772;9.186;2023-01-30T17:39:07;8.60;;;4.40;;
809;SDS011;387;48.772;9.186;2023-01-30T17:41:36;15.00;;;4.50;;
809;SDS011;387;48.772;9.186;2023-01-30T17:44:03;10.50;;;4.50;;
809;SDS011;387;48.772;9.186;2023-01-30T17:47:02;8.10;;;4.30;;
809;SDS011;387;48.772;9.186;2023-01-30T17:49:21;8.20;;;4.83;;
809;SDS011;387;48.772;9.186;2023-01-30T17:51:48;8.33;;;4.27;;
809;SDS011;387;48.772;9.186;2023-01-30T17:54:15;6.67;;;4.30;;
809;SDS011;387;48.772;9.186;2023-01-30T17:56:41;9.53;;;5.13;;
809;SDS011;387;48.772;9.186;2023-01-30T17:59:12;10.83;;;5.30;;
809;SDS011;387;48.772;9.186;2023-01-30T18:01:44;10.10;;;5.53;;
809;SDS011;387;48.772;9.186;2023-01-30T18:04:11;8.87;;;4.40;;
809;SDS011;387;48.772;9.186;2023-01-30T18:06:38;8.83;;;4.67;;
809;SDS011;387;48.772;9.186;2023-01-30T18:09:05;9.80;;;5.23;;
809;SDS011;387;48.772;9.186;2023-01-30T18:11:31;8.57;;;5.00;;
809;SDS011;387;48.772;9.186;2023-01-30T18:13:57;10.43;;;5.23;;
809;SDS011;387;48.772;9.186;2023-01-30T18:16:27;13.40;;;5.40;;
809;SDS011;387;48.772;9.186;2023-01-30T18:18:57;11.63;;;5.30;;
809;SDS011;387;48.772;9.186;2023-01-30T18:21:24;9.87;;;5.97;;
809;SDS011;387;48.772;9.186;2023-01-30T18:23:50;11.13;;;5.63;;
809;SDS011;387;48.772;9.186;2023-01-30T18:26:16;9.43;;;5.77;;
809;SDS011;387;48.772;9.186;2023-01-30T18:28:42;10.83;;;5.97;;
809;SDS011;387;48.772;9.186;2023-01-30T18:31:09;9.30;;;4.93;;
809;SDS011;387;48.772;9.186;2023-01-30T18:33:35;9.67;;;5.07;;
809;SDS011;387;48.772;9.186;2023-01-30T18:36:02;12.10;;;5.47;;
809;SDS011;387;48.772;9.186;2023-01-30T18:38:29;12.60;;;5.80;;
809;SDS011;387;48.772;9.186;2023-01-30T18:40:55;9.60;;;5.23;;